EDT,Max TemperatureF,Mean TemperatureF,Min TemperatureF,Max Dew PointF,MeanDew PointF,Min DewpointF,Max Humidity, Mean Humidity, Min Humidity, Max Sea Level PressureIn, Mean Sea Level PressureIn, Min Sea Level PressureIn, Max VisibilityMiles, Mean VisibilityMiles, Min VisibilityMiles, Max Wind SpeedMPH, Mean Wind SpeedMPH, Max Gust SpeedMPH,PrecipitationIn, CloudCover, Events, WindDirDegrees
2013-8-1,91,82,73,75,72,70,90,80,53,30.07,30.02,29.95,10,8,1,22,6,28,2.56,3,Rain-Thunderstorm,209
2013-8-2,91,82,73,74,72,70,90,74,52,30.05,30.01,29.96,10,10,10,12,2,,0.00,1,,142
2013-8-3,93,82,75,77,74,72,88,74,55,30.06,30.02,29.99,10,10,10,10,3,,0.02,3,Thunderstorm,236
2013-8-4,96,88,80,77,74,71,84,69,44,30.05,30.00,29.94,10,10,10,12,6,,0.00,1,,273
2013-8-5,95,86,80,77,75,72,88,71,52,30.01,29.97,29.93,10,10,10,12,5,,0.00,2,,357
2013-8-6,90,84,80,77,75,74,89,75,61,30.01,29.97,29.92,10,10,8,15,5,22,0.00,3,,111
2013-8-7,89,84,80,76,75,73,85,73,61,30.03,30.00,29.96,10,10,10,14,7,20,0.00,4,,92
2013-8-8,90,84,78,77,74,72,88,77,57,30.07,30.02,29.98,10,9,2,18,4,24,0.65,2,Rain,126
2013-8-9,90,83,77,76,74,71,88,74,55,30.11,30.07,30.01,10,10,10,12,4,,0.08,2,Rain,123
2013-8-10,91,83,75,76,73,69,88,73,50,30.16,30.12,30.08,10,10,10,9,3,17,0.03,1,Thunderstorm,145
2013-8-11,93,86,78,76,74,69,88,71,50,30.18,30.14,30.09,10,10,10,12,5,,0.00,0,,166
2013-8-12,96,86,79,75,73,69,84,69,51,30.14,30.08,30.01,10,10,10,9,5,,0.12,2,Rain-Thunderstorm,198
2013-8-13,96,86,77,76,73,66,88,68,38,30.04,29.99,29.91,10,10,10,10,4,,0.00,1,,213
2013-8-14,96,86,75,78,73,69,84,71,43,30.01,29.95,29.88,10,10,10,24,5,32,0.25,3,Rain-Thunderstorm,218
2013-8-15,93,84,75,75,73,70,89,77,46,30.05,29.99,29.94,10,9,2,21,5,28,0.84,2,Rain-Thunderstorm,212
2013-8-16,91,82,75,74,72,69,90,77,50,30.07,30.02,29.96,10,10,10,12,2,,0.09,2,,216
2013-8-17,88,82,77,79,75,73,90,81,63,30.12,30.08,30.03,10,10,10,9,2,,0.25,3,Rain-Thunderstorm,147
2013-8-18,90,83,77,79,75,73,94,79,61,30.14,30.11,30.07,10,10,7,13,4,18,0.07,3,Rain,116
2013-8-19,90,84,78,76,75,73,88,76,57,30.11,30.06,30.00,10,10,4,18,5,24,0.44,2,Rain,142
2013-8-20,91,83,75,76,74,73,91,74,57,30.14,30.08,30.04,10,10,10,13,5,16,0.00,2,,124
2013-8-21,90,84,78,77,75,72,88,78,61,30.18,30.13,30.10,10,10,10,15,3,20,0.05,2,Rain-Thunderstorm,97
2013-8-22,82,78,75,76,73,69,90,84,76,30.18,30.10,30.04,10,10,9,14,5,20,0.40,3,Rain-Thunderstorm,89
2013-8-23,84,80,77,77,74,70,90,84,74,30.06,30.04,30.01,10,9,2,14,3,,0.91,4,Rain-Thunderstorm,100
2013-8-24,86,80,77,75,73,72,88,79,69,30.16,30.10,30.04,10,10,10,12,3,,0.00,2,Rain,43
2013-8-25,86,80,75,74,72,69,89,77,67,30.21,30.18,30.14,10,10,9,22,7,28,0.17,5,Rain-Thunderstorm,44
2013-8-26,87,82,77,73,72,71,84,73,61,30.20,30.15,30.09,10,10,10,14,8,22,0.00,4,Rain,49
2013-8-27,87,81,75,73,69,64,88,69,46,30.11,30.07,30.03,10,10,10,10,3,,0.00,4,,73
2013-8-28,88,80,72,72,68,65,87,70,49,30.08,30.03,29.99,10,10,4,10,2,,0.00,1,,159
2013-8-29,93,82,72,74,68,65,87,63,41,30.03,29.98,29.92,10,10,10,9,5,16,0.00,1,,253
2013-8-30,93,85,77,74,72,69,84,69,44,29.98,29.94,29.87,10,10,8,13,4,,0.00,1,,212
2013-8-31,93,83,75,76,72,66,91,75,50,29.97,29.93,29.89,10,9,4,12,3,,0.00,1,Thunderstorm,188